Temp: 17.1°C   Baro: 1023.4mb
  Wind: 2.9mph   Dir: NW (318°)
  Rain: 7.0mm (0.0mm/hr)
  Solar: 141W/m2  Hum: 68%

Historic data

Bath Spa Weather Station Historical Data
Daily Summary for August 03, 2022 Units:  Metric    English   Both
Daily Weekly Monthly Yearly Custom
  High: Low: Average:
Temperature: 23.2 °C 16.2 °C 19.6 °C
Dew Point: 18.7 °C 13.1 °C 16.2 °C
Humidity: 90.8% 66% 81%
Wind Speed: 17.4km/h 1.6km/h 9km/h
Wind Gust: 29km/h - -
Wind- - WSW
Pressure: 1014.4 hPa 1012.8 hPa -
Precipitation: 0 mm    
Historical Graphs
 
 
Tabular Data for August 03, 2022
Time Temperature Dew Point Pressure Wind Wind Speed Wind Gust Humidity Rainfall Rate (Hourly) solar
00:09 19.3 °C 16.4 °C 1013.8 hPa SW 9.5 km/h 19.3 km/h 84% 0 mm 0 W/m2
00:13 19.2 °C 16.4 °C 1013.8 hPa SW 9.3 km/h 22.5 km/h 84% 0 mm 0 W/m2
00:24 19.2 °C 16.4 °C 1013.4 hPa SW 17.1 km/h 24.1 km/h 84% 0 mm 0 W/m2
00:29 19.2 °C 16.4 °C 1013.8 hPa SW 8 km/h 24.1 km/h 84% 0 mm 0 W/m2
00:34 19.2 °C 16.4 °C 1013.8 hPa WSW 8.5 km/h 19.3 km/h 84% 0 mm 0 W/m2
00:39 19.2 °C 16.4 °C 1013.8 hPa SW 12.6 km/h 17.7 km/h 84% 0 mm 0 W/m2
00:44 19.3 °C 16.5 °C 1013.8 hPa WSW 10.3 km/h 17.7 km/h 84% 0 mm 0 W/m2
00:49 19.3 °C 16.6 °C 1013.8 hPa SW 10.9 km/h 24.1 km/h 84.6% 0 mm 0 W/m2
00:54 19.3 °C 16.7 °C 1013.4 hPa SW 13 km/h 20.9 km/h 85% 0 mm 0 W/m2
00:59 19.3 °C 16.6 °C 1013.8 hPa SW 11.4 km/h 27.4 km/h 84.2% 0 mm 0 W/m2
01:04 19.3 °C 16.5 °C 1013.4 hPa SW 10.3 km/h 17.7 km/h 84% 0 mm 0 W/m2
01:09 19.3 °C 16.5 °C 1013.4 hPa WSW 9.7 km/h 29 km/h 84% 0 mm 0 W/m2
01:14 19.3 °C 16.4 °C 1013.4 hPa WSW 13 km/h 20.9 km/h 84% 0 mm 0 W/m2
01:19 19.2 °C 16.4 °C 1013.4 hPa SW 10.6 km/h 22.5 km/h 84% 0 mm 0 W/m2
01:24 19.2 °C 16.4 °C 1013.4 hPa SW 10.5 km/h 22.5 km/h 84% 0 mm 0 W/m2
01:29 19.2 °C 16.6 °C 1013.4 hPa SW 11.6 km/h 22.5 km/h 84.8% 0 mm 0 W/m2
01:34 19.1 °C 16.5 °C 1013.4 hPa WSW 8.4 km/h 19.3 km/h 85% 0 mm 0 W/m2
01:39 19.1 °C 16.4 °C 1013.4 hPa SW 9.3 km/h 17.7 km/h 85% 0 mm 0 W/m2
01:44 18.9 °C 16.3 °C 1013.4 hPa WSW 9.8 km/h 19.3 km/h 85% 0 mm 0 W/m2
01:49 18.9 °C 16.3 °C 1013.4 hPa SW 10 km/h 16.1 km/h 85% 0 mm 0 W/m2
01:54 18.9 °C 16.3 °C 1013.1 hPa SW 10.6 km/h 22.5 km/h 85% 0 mm 0 W/m2
01:59 18.8 °C 16.2 °C 1013.1 hPa SW 12.1 km/h 19.3 km/h 85% 0 mm 0 W/m2
02:04 18.8 °C 16.4 °C 1013.1 hPa SW 11.9 km/h 19.3 km/h 86% 0 mm 0 W/m2
02:09 18.8 °C 16.4 °C 1013.1 hPa SW 9.7 km/h 20.9 km/h 86% 0 mm 0 W/m2
02:13 18.8 °C 16.3 °C 1013.1 hPa SW 13.7 km/h 19.3 km/h 86% 0 mm 0 W/m2
02:19 18.7 °C 16.3 °C 1013.1 hPa SW 9 km/h 17.7 km/h 86% 0 mm 0 W/m2
02:24 18.7 °C 16.3 °C 1013.1 hPa SW 11.9 km/h 22.5 km/h 86% 0 mm 0 W/m2
02:29 18.7 °C 16.3 °C 1013.1 hPa SW 10.9 km/h 22.5 km/h 86% 0 mm 0 W/m2
02:34 18.7 °C 16.3 °C 1013.1 hPa SW 8.9 km/h 17.7 km/h 86% 0 mm 0 W/m2
02:39 18.7 °C 16.3 °C 1012.8 hPa WSW 10.3 km/h 19.3 km/h 86% 0 mm 0 W/m2
02:44 18.6 °C 16.2 °C 1012.8 hPa SW 5.6 km/h 16.1 km/h 86% 0 mm 0 W/m2
02:49 18.7 °C 16.3 °C 1012.8 hPa SW 7.7 km/h 16.1 km/h 86% 0 mm 0 W/m2
02:54 18.6 °C 16.2 °C 1012.8 hPa SW 8.4 km/h 16.1 km/h 86% 0 mm 0 W/m2
02:59 18.6 °C 16.2 °C 1012.8 hPa SW 12.4 km/h 17.7 km/h 86% 0 mm 0 W/m2
03:04 18.6 °C 16.4 °C 1012.8 hPa SW 10 km/h 19.3 km/h 87% 0 mm 0 W/m2
03:09 18.6 °C 16.4 °C 1012.8 hPa WSW 10.6 km/h 19.3 km/h 87% 0 mm 0 W/m2
03:14 18.6 °C 16.4 °C 1012.8 hPa SW 8 km/h 17.7 km/h 87% 0 mm 0 W/m2
03:19 18.6 °C 16.4 °C 1012.8 hPa SW 8 km/h 19.3 km/h 87% 0 mm 0 W/m2
03:24 18.6 °C 16.4 °C 1012.8 hPa SW 9.2 km/h 16.1 km/h 87% 0 mm 0 W/m2
03:29 18.6 °C 16.4 °C 1012.8 hPa SW 7.1 km/h 16.1 km/h 87% 0 mm 0 W/m2
03:34 18.6 °C 16.4 °C 1012.8 hPa SW 8.5 km/h 14.5 km/h 87% 0 mm 0 W/m2
03:39 18.7 °C 16.4 °C 1012.8 hPa SW 10.9 km/h 17.7 km/h 87% 0 mm 0 W/m2
03:44 18.7 °C 16.5 °C 1012.8 hPa SW 7.7 km/h 17.7 km/h 87% 0 mm 0 W/m2
03:49 18.7 °C 16.5 °C 1012.8 hPa SW 10.8 km/h 17.7 km/h 87% 0 mm 0 W/m2
03:54 18.8 °C 16.6 °C 1012.8 hPa SW 8.9 km/h 16.1 km/h 87% 0 mm 0 W/m2
03:59 18.8 °C 16.6 °C 1012.8 hPa SW 10.6 km/h 20.9 km/h 87% 0 mm 0 W/m2
04:04 18.8 °C 16.6 °C 1012.8 hPa SSW 10.9 km/h 19.3 km/h 87% 0 mm 0 W/m2
04:09 18.8 °C 16.6 °C 1012.8 hPa SW 8.4 km/h 19.3 km/h 87% 0 mm 0 W/m2
04:14 18.8 °C 16.6 °C 1012.8 hPa SW 10.8 km/h 22.5 km/h 87% 0 mm 0 W/m2
04:19 18.8 °C 16.7 °C 1012.8 hPa SW 9.3 km/h 22.5 km/h 87.2% 0 mm 0 W/m2
04:24 18.7 °C 16.7 °C 1012.8 hPa SW 7.2 km/h 16.1 km/h 88% 0 mm 0 W/m2
04:29 18.7 °C 16.7 °C 1012.8 hPa SW 10.3 km/h 17.7 km/h 88% 0 mm 0 W/m2
04:34 18.6 °C 16.6 °C 1012.8 hPa SW 10 km/h 17.7 km/h 88% 0 mm 0 W/m2
04:39 18.6 °C 16.6 °C 1012.8 hPa SW 11.9 km/h 19.3 km/h 88% 0 mm 0 W/m2
04:44 18.6 °C 16.6 °C 1012.8 hPa SW 7.7 km/h 19.3 km/h 88% 0 mm 0 W/m2
04:49 18.5 °C 16.6 °C 1012.8 hPa SW 11.6 km/h 19.3 km/h 88.2% 0 mm 0 W/m2
04:54 18.5 °C 16.7 °C 1012.8 hPa SW 9.3 km/h 19.3 km/h 89% 0 mm 0 W/m2
04:59 18.5 °C 16.7 °C 1012.8 hPa SW 10.9 km/h 19.3 km/h 89% 0 mm 0 W/m2
05:04 18.5 °C 16.7 °C 1012.8 hPa SW 7.2 km/h 17.7 km/h 89% 0 mm 0 W/m2
05:09 18.5 °C 16.7 °C 1012.8 hPa SW 7.6 km/h 16.1 km/h 89% 0 mm 0 W/m2
05:14 18.5 °C 16.7 °C 1012.8 hPa SSW 5.8 km/h 16.1 km/h 89% 0 mm 0 W/m2
05:19 18.5 °C 16.7 °C 1012.8 hPa SW 7.1 km/h 12.9 km/h 89% 0 mm 0 W/m2
05:24 18.5 °C 16.7 °C 1012.8 hPa WSW 5.5 km/h 12.9 km/h 89% 0 mm 0 W/m2
05:29 18.5 °C 16.7 °C 1012.8 hPa SW 10.9 km/h 19.3 km/h 89% 0 mm 0 W/m2
05:34 18.5 °C 16.7 °C 1012.8 hPa SW 9.2 km/h 19.3 km/h 89% 0 mm 0 W/m2
05:39 18.5 °C 16.7 °C 1012.8 hPa SSW 5.6 km/h 14.5 km/h 89.4% 0 mm 5 W/m2
05:44 18.5 °C 16.8 °C 1012.8 hPa SW 8.7 km/h 19.3 km/h 89.6% 0 mm 7 W/m2
05:49 18.5 °C 16.8 °C 1012.8 hPa SW 6.8 km/h 19.3 km/h 90% 0 mm 11 W/m2
05:54 18.5 °C 16.8 °C 1012.8 hPa SW 6 km/h 14.5 km/h 90% 0 mm 18 W/m2
05:59 18.5 °C 16.8 °C 1012.8 hPa SW 10.1 km/h 16.1 km/h 90% 0 mm 19 W/m2
06:04 18.6 °C 16.9 °C 1012.8 hPa SW 7.4 km/h 14.5 km/h 90% 0 mm 12 W/m2
06:09 18.7 °C 16.8 °C 1012.8 hPa SW 8.9 km/h 14.5 km/h 89.6% 0 mm 11 W/m2
06:14 18.7 °C 16.8 °C 1012.8 hPa SW 7.2 km/h 14.5 km/h 89% 0 mm 12 W/m2
06:19 18.8 °C 17 °C 1012.8 hPa SW 7.1 km/h 14.5 km/h 89.4% 0 mm 12 W/m2
06:24 18.8 °C 16.9 °C 1012.8 hPa SW 7.9 km/h 16.1 km/h 89% 0 mm 18 W/m2
06:29 18.9 °C 17 °C 1012.8 hPa SW 9.3 km/h 16.1 km/h 89% 0 mm 23 W/m2
06:34 18.9 °C 17 °C 1012.8 hPa SW 6.8 km/h 16.1 km/h 89% 0 mm 25 W/m2
06:39 18.9 °C 17 °C 1012.8 hPa SW 6.9 km/h 14.5 km/h 89% 0 mm 25 W/m2
06:44 18.9 °C 17 °C 1013.1 hPa SW 10 km/h 22.5 km/h 89% 0 mm 35 W/m2
06:49 19 °C 17.1 °C 1013.1 hPa SW 10.8 km/h 22.5 km/h 89% 0 mm 35 W/m2
06:54 19.1 °C 17.2 °C 1012.8 hPa SW 8.5 km/h 22.5 km/h 89% 0 mm 33 W/m2
06:59 19.1 °C 17.2 °C 1012.8 hPa SW 7.7 km/h 14.5 km/h 89% 0 mm 46 W/m2
07:04 19.1 °C 17.2 °C 1012.8 hPa SW 6.6 km/h 14.5 km/h 89% 0 mm 69 W/m2
07:09 19.1 °C 17.2 °C 1012.8 hPa SW 10 km/h 20.9 km/h 89% 0 mm 123 W/m2
07:14 19.1 °C 17.2 °C 1013.1 hPa SW 10.1 km/h 24.1 km/h 89% 0 mm 127 W/m2
07:19 19.1 °C 17.2 °C 1013.1 hPa SSW 12.9 km/h 24.1 km/h 89% 0 mm 69 W/m2
07:24 19.1 °C 17.2 °C 1013.1 hPa South 9.7 km/h 20.9 km/h 89% 0 mm 116 W/m2
07:29 19.2 °C 17.3 °C 1013.1 hPa SW 7.4 km/h 22.5 km/h 89% 0 mm 141 W/m2
07:34 19.2 °C 17.3 °C 1013.1 hPa SSW 9.8 km/h 20.9 km/h 89% 0 mm 156 W/m2
07:39 19.2 °C 17.3 °C 1013.1 hPa SSW 7.1 km/h 19.3 km/h 89% 0 mm 142 W/m2
07:44 19.1 °C 17.4 °C 1013.1 hPa SSW 11.3 km/h 20.9 km/h 89.8% 0 mm 151 W/m2
07:49 19 °C 17.3 °C 1013.1 hPa SW 12.6 km/h 24.1 km/h 90% 0 mm 248 W/m2
07:54 19.1 °C 17.4 °C 1013.1 hPa SSW 10.1 km/h 24.1 km/h 90% 0 mm 251 W/m2
07:59 19.2 °C 17.6 °C 1013.1 hPa SW 10.9 km/h 24.1 km/h 90.8% 0 mm 339 W/m2
08:04 19.3 °C 17.8 °C 1013.1 hPa SSW 9.2 km/h 20.9 km/h 90.8% 0 mm 381 W/m2
08:09 19.4 °C 17.8 °C 1013.1 hPa SW 10.6 km/h 20.9 km/h 90.4% 0 mm 267 W/m2
08:14 19.3 °C 17.6 °C 1013.1 hPa SW 12.1 km/h 20.9 km/h 90% 0 mm 234 W/m2
08:19 19.3 °C 17.6 °C 1013.1 hPa SSW 10.6 km/h 20.9 km/h 90% 0 mm 132 W/m2
08:24 19.3 °C 17.6 °C 1013.1 hPa SW 7.7 km/h 14.5 km/h 90% 0 mm 125 W/m2
08:29 19.3 °C 17.7 °C 1013.4 hPa SSW 9.2 km/h 17.7 km/h 90% 0 mm 183 W/m2
08:34 19.3 °C 17.6 °C 1013.4 hPa SW 10.9 km/h 22.5 km/h 90% 0 mm 181 W/m2
08:39 19.3 °C 17.7 °C 1013.4 hPa SSW 7.2 km/h 19.3 km/h 90% 0 mm 155 W/m2
08:44 19.4 °C 17.7 °C 1013.4 hPa SSW 9 km/h 12.9 km/h 90% 0 mm 367 W/m2
08:49 19.6 °C 17.9 °C 1013.4 hPa SW 9.7 km/h 20.9 km/h 90% 0 mm 367 W/m2
08:54 19.8 °C 18.1 °C 1013.4 hPa SW 10.3 km/h 17.7 km/h 89.6% 0 mm 264 W/m2
08:59 19.8 °C 17.9 °C 1013.4 hPa SW 6.9 km/h 14.5 km/h 89% 0 mm 179 W/m2
09:04 19.8 °C 17.9 °C 1013.4 hPa SSW 11.6 km/h 17.7 km/h 89% 0 mm 169 W/m2
09:09 19.8 °C 17.9 °C 1013.4 hPa SW 7.2 km/h 17.7 km/h 89% 0 mm 148 W/m2
09:14 19.7 °C 17.8 °C 1013.4 hPa SSW 9.8 km/h 17.7 km/h 89% 0 mm 169 W/m2
09:18 19.7 °C 17.8 °C 1013.4 hPa SSW 8.9 km/h 19.3 km/h 89% 0 mm 236 W/m2
09:24 19.8 °C 17.8 °C 1013.4 hPa SSW 9 km/h 24.1 km/h 89% 0 mm 239 W/m2
09:29 19.8 °C 17.9 °C 1013.4 hPa SSW 8.4 km/h 19.3 km/h 88.8% 0 mm 230 W/m2
09:34 20.1 °C 18.1 °C 1013.4 hPa SW 7.2 km/h 19.3 km/h 88.4% 0 mm 394 W/m2
09:39 20.4 °C 18.3 °C 1013.4 hPa SSW 5.6 km/h 17.7 km/h 88% 0 mm 587 W/m2
09:44 20.8 °C 18.6 °C 1013.4 hPa SSW 7.9 km/h 14.5 km/h 87.2% 0 mm 598 W/m2
09:49 21 °C 18.7 °C 1013.1 hPa SW 6.6 km/h 11.3 km/h 86.4% 0 mm 508 W/m2
09:54 21.1 °C 18.6 °C 1013.4 hPa SW 10.3 km/h 22.5 km/h 85.2% 0 mm 508 W/m2
09:59 20.9 °C 18.2 °C 1013.4 hPa SW 11.4 km/h 22.5 km/h 84.6% 0 mm 348 W/m2
10:04 20.9 °C 18.1 °C 1013.4 hPa SW 15.4 km/h 25.7 km/h 84% 0 mm 330 W/m2
10:09 21 °C 18.2 °C 1013.4 hPa SW 12.6 km/h 24.1 km/h 84% 0 mm 369 W/m2
10:14 21.1 °C 18.3 °C 1013.4 hPa WSW 9 km/h 24.1 km/h 83.8% 0 mm 334 W/m2
10:19 21.3 °C 18.3 °C 1013.4 hPa SSW 11.3 km/h 17.7 km/h 83.2% 0 mm 274 W/m2
10:24 21.2 °C 18.2 °C 1013.4 hPa SW 10.1 km/h 19.3 km/h 83% 0 mm 225 W/m2
10:29 21 °C 18.2 °C 1013.4 hPa SSW 10.6 km/h 17.7 km/h 83.6% 0 mm 206 W/m2
10:34 20.8 °C 18.2 °C 1013.4 hPa SW 11.9 km/h 22.5 km/h 84.5% 0 mm 155 W/m2
10:39 20.3 °C 17.8 °C 1013.4 hPa West 14.8 km/h 25.7 km/h 85.4% 0 mm 90 W/m2
10:44 19.4 °C 17.2 °C 1013.4 hPa West 12.2 km/h 22.5 km/h 86.8% 0 mm 111 W/m2
10:49 18.9 °C 17 °C 1013.4 hPa West 10.6 km/h 24.1 km/h 88.2% 0 mm 165 W/m2
10:54 18.7 °C 16.8 °C 1013.8 hPa West 10.6 km/h 24.1 km/h 89% 0 mm 213 W/m2
10:59 18.6 °C 16.8 °C 1013.8 hPa West 9.7 km/h 19.3 km/h 89% 0 mm 339 W/m2
11:04 18.7 °C 17 °C 1013.8 hPa West 8.7 km/h 17.7 km/h 90% 0 mm 330 W/m2
11:09 18.8 °C 17.2 °C 1013.8 hPa West 8.9 km/h 17.7 km/h 90% 0 mm 320 W/m2
11:14 19 °C 17.3 °C 1013.8 hPa WSW 8.4 km/h 12.9 km/h 90% 0 mm 290 W/m2
11:19 18.9 °C 17.3 °C 1013.8 hPa WNW 6.6 km/h 16.1 km/h 90% 0 mm 278 W/m2
11:24 18.7 °C 17 °C 1013.8 hPa WNW 12.9 km/h 22.5 km/h 89.8% 0 mm 206 W/m2
11:29 18.4 °C 16.7 °C 1013.8 hPa West 13.8 km/h 19.3 km/h 89% 0 mm 174 W/m2
11:34 18.4 °C 16.6 °C 1014.1 hPa West 10.9 km/h 20.9 km/h 89% 0 mm 207 W/m2
11:39 18.5 °C 16.7 °C 1014.1 hPa West 10.6 km/h 14.5 km/h 89% 0 mm 253 W/m2
11:44 18.6 °C 16.7 °C 1014.1 hPa West 10.8 km/h 16.1 km/h 88.6% 0 mm 309 W/m2
11:49 18.6 °C 16.6 °C 1014.1 hPa West 13.2 km/h 17.7 km/h 88% 0 mm 381 W/m2
11:54 18.7 °C 16.7 °C 1014.1 hPa WSW 8.5 km/h 16.1 km/h 88% 0 mm 353 W/m2
11:59 18.7 °C 16.5 °C 1014.1 hPa WSW 9.5 km/h 16.1 km/h 87% 0 mm 404 W/m2
12:04 18.8 °C 16.6 °C 1014.1 hPa West 7.4 km/h 14.5 km/h 87% 0 mm 301 W/m2
12:09 18.8 °C 16.7 °C 1014.1 hPa West 8.7 km/h 12.9 km/h 87% 0 mm 258 W/m2
12:14 19 °C 16.8 °C 1014.1 hPa WSW 8.4 km/h 12.9 km/h 87% 0 mm 218 W/m2
12:19 18.9 °C 16.7 °C 1014.1 hPa West 8.7 km/h 14.5 km/h 87% 0 mm 171 W/m2
12:24 18.8 °C 16.6 °C 1014.1 hPa WSW 7.1 km/h 14.5 km/h 87% 0 mm 237 W/m2
12:29 18.6 °C 16.6 °C 1014.1 hPa West 10 km/h 19.3 km/h 87.6% 0 mm 283 W/m2
12:34 18.6 °C 16.7 °C 1014.1 hPa West 4.5 km/h 14.5 km/h 88.2% 0 mm 288 W/m2
12:39 18.6 °C 16.8 °C 1014.1 hPa West 6.3 km/h 9.7 km/h 89% 0 mm 313 W/m2
12:44 18.7 °C 16.8 °C 1014.1 hPa WSW 9.3 km/h 14.5 km/h 89% 0 mm 236 W/m2
12:49 18.6 °C 16.8 °C 1014.1 hPa West 5.8 km/h 11.3 km/h 89% 0 mm 195 W/m2
12:54 18.7 °C 16.7 °C 1014.1 hPa West 5.6 km/h 9.7 km/h 88.4% 0 mm 192 W/m2
12:59 18.7 °C 16.7 °C 1014.1 hPa West 10.1 km/h 12.9 km/h 88% 0 mm 199 W/m2
13:04 18.7 °C 16.6 °C 1014.1 hPa West 8.9 km/h 16.1 km/h 87.2% 0 mm 207 W/m2
13:09 18.9 °C 16.6 °C 1014.1 hPa WNW 10.9 km/h 17.7 km/h 86.4% 0 mm 234 W/m2
13:14 18.9 °C 16.4 °C 1014.4 hPa West 9.2 km/h 17.7 km/h 85.2% 0 mm 292 W/m2
13:19 19.1 °C 16.2 °C 1014.4 hPa WSW 9.2 km/h 19.3 km/h 83.8% 0 mm 281 W/m2
13:24 19.2 °C 16.2 °C 1014.4 hPa West 8.4 km/h 16.1 km/h 83% 0 mm 318 W/m2
13:29 19.3 °C 16.2 °C 1014.4 hPa West 10.5 km/h 17.7 km/h 82.2% 0 mm 339 W/m2
13:34 19.4 °C 16.1 °C 1014.4 hPa West 9.7 km/h 16.1 km/h 81% 0 mm 376 W/m2
13:39 19.7 °C 16.2 °C 1014.4 hPa West 9.3 km/h 19.3 km/h 80% 0 mm 390 W/m2
13:44 19.7 °C 16 °C 1014.4 hPa West 8 km/h 14.5 km/h 79% 0 mm 613 W/m2
13:49 19.8 °C 15.8 °C 1014.4 hPa West 7.6 km/h 17.7 km/h 78% 0 mm 626 W/m2
13:54 20.2 °C 16.1 °C 1014.4 hPa WSW 5.8 km/h 12.9 km/h 77.4% 0 mm 452 W/m2
13:59 20.3 °C 15.9 °C 1014.4 hPa WSW 10 km/h 16.1 km/h 75.8% 0 mm 334 W/m2
14:04 20.2 °C 15.6 °C 1014.1 hPa West 8 km/h 17.7 km/h 75% 0 mm 446 W/m2
14:09 20.3 °C 15.8 °C 1014.1 hPa West 13.2 km/h 24.1 km/h 75.4% 0 mm 272 W/m2
14:14 20.2 °C 15.6 °C 1014.1 hPa West 11.9 km/h 24.1 km/h 75% 0 mm 297 W/m2
14:19 19.8 °C 15.6 °C 1014.4 hPa WSW 8.4 km/h 22.5 km/h 76.4% 0 mm 390 W/m2
14:24 19.8 °C 15.6 °C 1014.1 hPa WSW 8.7 km/h 14.5 km/h 76.8% 0 mm 392 W/m2
14:29 20.1 °C 15.7 °C 1014.1 hPa WSW 12.9 km/h 22.5 km/h 76.3% 0 mm 396 W/m2
14:34 20.6 °C 15.8 °C 1014.1 hPa West 7.7 km/h 22.5 km/h 74.2% 0 mm 513 W/m2
14:39 20.8 °C 15.7 °C 1014.1 hPa WSW 11.7 km/h 19.3 km/h 72.2% 0 mm 555 W/m2
14:44 21.1 °C 15.6 °C 1014.1 hPa West 7.6 km/h 17.7 km/h 71.2% 0 mm 617 W/m2
14:49 21.3 °C 15.8 °C 1014.1 hPa West 9.5 km/h 19.3 km/h 71% 0 mm 613 W/m2
14:54 21.6 °C 15.9 °C 1014.1 hPa West 12.9 km/h 22.5 km/h 70% 0 mm 613 W/m2
14:59 21.4 °C 15.6 °C 1014.1 hPa West 13.2 km/h 20.9 km/h 69.6% 0 mm 383 W/m2
15:04 21.5 °C 15.8 °C 1014.1 hPa WSW 8.4 km/h 17.7 km/h 69.8% 0 mm 376 W/m2
15:09 21.5 °C 15.7 °C 1014.1 hPa WSW 10.1 km/h 17.7 km/h 69.2% 0 mm 469 W/m2
15:14 21.7 °C 15.9 °C 1014.1 hPa West 6.6 km/h 16.1 km/h 69.8% 0 mm 485 W/m2
15:19 21.9 °C 16 °C 1014.1 hPa NW 10.6 km/h 14.5 km/h 69.2% 0 mm 738 W/m2
15:24 22 °C 15.8 °C 1014.1 hPa WNW 10.9 km/h 20.9 km/h 68.2% 0 mm 404 W/m2
15:29 21.7 °C 15.5 °C 1014.1 hPa NW 11.3 km/h 19.3 km/h 68% 0 mm 476 W/m2
15:34 21.7 °C 15.5 °C 1013.8 hPa West 8.4 km/h 20.9 km/h 68% 0 mm 323 W/m2
15:39 21.7 °C 15.5 °C 1013.8 hPa West 8.9 km/h 17.7 km/h 68% 0 mm 455 W/m2
15:44 22 °C 16.2 °C 1013.8 hPa West 8 km/h 17.7 km/h 69.8% 0 mm 800 W/m2
15:49 22.4 °C 16.7 °C 1013.8 hPa WNW 9.3 km/h 20.9 km/h 70.2% 0 mm 758 W/m2
15:54 22.4 °C 16.8 °C 1013.8 hPa WNW 10.8 km/h 22.5 km/h 70.2% 0 mm 745 W/m2
15:59 22.3 °C 16.8 °C 1013.8 hPa WNW 13.7 km/h 25.7 km/h 71% 0 mm 710 W/m2
16:04 22.5 °C 16.9 °C 1013.8 hPa WNW 11.9 km/h 25.7 km/h 70.6% 0 mm 708 W/m2
16:09 22.8 °C 16.8 °C 1013.8 hPa West 10.6 km/h 22.5 km/h 69.2% 0 mm 671 W/m2
16:14 22.9 °C 16.9 °C 1013.4 hPa WSW 14.3 km/h 24.1 km/h 69% 0 mm 650 W/m2
16:19 23 °C 16.7 °C 1013.4 hPa WSW 9.8 km/h 20.9 km/h 67.8% 0 mm 693 W/m2
16:24 22.8 °C 16.6 °C 1013.4 hPa WSW 10.9 km/h 22.5 km/h 67.8% 0 mm 721 W/m2
16:29 23.1 °C 16.9 °C 1013.4 hPa WSW 10.6 km/h 20.9 km/h 68% 0 mm 654 W/m2
16:34 23.2 °C 16.7 °C 1013.4 hPa West 8.4 km/h 20.9 km/h 67.2% 0 mm 631 W/m2
16:39 23.1 °C 16.4 °C 1013.4 hPa West 8.7 km/h 20.9 km/h 66.4% 0 mm 642 W/m2
16:44 23.1 °C 16.5 °C 1013.4 hPa West 11.6 km/h 20.9 km/h 66.6% 0 mm 629 W/m2
16:49 22.9 °C 16.3 °C 1013.4 hPa West 11.9 km/h 20.9 km/h 66.4% 0 mm 654 W/m2
16:54 22.9 °C 16.4 °C 1013.4 hPa West 6.3 km/h 20.9 km/h 66.8% 0 mm 680 W/m2
16:59 22.9 °C 16.3 °C 1013.4 hPa West 12.4 km/h 20.9 km/h 66% 0 mm 508 W/m2
17:04 22.4 °C 16.2 °C 1013.4 hPa NW 13.4 km/h 20.9 km/h 67.4% 0 mm 213 W/m2
17:09 22.2 °C 16.1 °C 1013.4 hPa NW 12.6 km/h 27.4 km/h 68.4% 0 mm 352 W/m2
17:14 22.2 °C 16.2 °C 1013.4 hPa WNW 12.6 km/h 27.4 km/h 69% 0 mm 197 W/m2
17:19 22.1 °C 16.1 °C 1013.4 hPa WNW 8.7 km/h 19.3 km/h 69% 0 mm 308 W/m2
17:24 22.2 °C 16.1 °C 1013.4 hPa WNW 17.4 km/h 27.4 km/h 68.2% 0 mm 529 W/m2
17:29 22.2 °C 15.9 °C 1013.4 hPa West 13.8 km/h 22.5 km/h 67.4% 0 mm 512 W/m2
17:34 22.3 °C 15.9 °C 1013.4 hPa WNW 12.2 km/h 24.1 km/h 67.2% 0 mm 459 W/m2
17:39 22.4 °C 16 °C 1013.4 hPa WNW 10.1 km/h 24.1 km/h 67% 0 mm 446 W/m2
17:44 22.7 °C 16.2 °C 1013.4 hPa WNW 9 km/h 19.3 km/h 67% 0 mm 427 W/m2
17:49 22.4 °C 16.2 °C 1013.4 hPa WNW 10.6 km/h 19.3 km/h 67.6% 0 mm 406 W/m2
17:54 22.3 °C 16.2 °C 1013.4 hPa West 6.8 km/h 17.7 km/h 68% 0 mm 448 W/m2
17:59 22.5 °C 16.3 °C 1013.4 hPa West 14.8 km/h 24.1 km/h 67.8% 0 mm 348 W/m2
18:04 22.3 °C 16.1 °C 1013.4 hPa West 10.9 km/h 24.1 km/h 68% 0 mm 478 W/m2
18:09 22.2 °C 15.9 °C 1013.4 hPa West 12.7 km/h 20.9 km/h 68% 0 mm 462 W/m2
18:14 22.1 °C 15.9 °C 1013.4 hPa West 11.4 km/h 19.3 km/h 68.4% 0 mm 220 W/m2
18:19 21.9 °C 16.1 °C 1013.4 hPa West 12.6 km/h 20.9 km/h 69.4% 0 mm 197 W/m2
18:24 21.8 °C 16.2 °C 1013.4 hPa WNW 7.6 km/h 20.9 km/h 70.6% 0 mm 334 W/m2
18:29 21.7 °C 16.2 °C 1013.4 hPa WNW 11.6 km/h 20.9 km/h 71% 0 mm 262 W/m2
18:34 21.6 °C 16.2 °C 1013.8 hPa WNW 13.8 km/h 22.5 km/h 71.6% 0 mm 396 W/m2
18:39 21.3 °C 16.1 °C 1013.8 hPa WNW 10.8 km/h 20.9 km/h 72% 0 mm 290 W/m2
18:44 21.3 °C 16 °C 1013.8 hPa NW 10.9 km/h 19.3 km/h 72% 0 mm 267 W/m2
18:49 21.2 °C 15.9 °C 1013.8 hPa WNW 8.2 km/h 16.1 km/h 72% 0 mm 98 W/m2
18:54 21 °C 15.8 °C 1013.8 hPa WNW 9.2 km/h 17.7 km/h 72% 0 mm 144 W/m2
18:59 21.1 °C 15.8 °C 1013.8 hPa WNW 7.9 km/h 16.1 km/h 72% 0 mm 260 W/m2
19:04 21.3 °C 15.7 °C 1013.4 hPa WNW 7.7 km/h 17.7 km/h 70.8% 0 mm 234 W/m2
19:09 21.3 °C 15.6 °C 1013.8 hPa WNW 8.5 km/h 17.7 km/h 70% 0 mm 206 W/m2
19:14 21.2 °C 15.5 °C 1013.4 hPa WNW 10 km/h 14.5 km/h 70% 0 mm 188 W/m2
19:19 21.2 °C 15.4 °C 1013.8 hPa West 10.8 km/h 20.9 km/h 69.8% 0 mm 174 W/m2
19:24 21 °C 15.3 °C 1013.8 hPa WNW 12.2 km/h 20.9 km/h 70% 0 mm 162 W/m2
19:29 21 °C 15.3 °C 1013.8 hPa WNW 9.7 km/h 17.7 km/h 70% 0 mm 155 W/m2
19:34 20.7 °C 15.2 °C 1013.8 hPa WNW 10.9 km/h 19.3 km/h 70.4% 0 mm 155 W/m2
19:39 20.4 °C 15.1 °C 1013.8 hPa West 9.3 km/h 22.5 km/h 71.2% 0 mm 127 W/m2
19:44 20.2 °C 15 °C 1013.8 hPa WNW 11.4 km/h 17.7 km/h 72.2% 0 mm 63 W/m2
19:49 19.9 °C 14.9 °C 1013.8 hPa WNW 6 km/h 16.1 km/h 73% 0 mm 56 W/m2
19:54 19.8 °C 15.1 °C 1013.8 hPa WNW 9.3 km/h 14.5 km/h 74% 0 mm 51 W/m2
19:59 19.8 °C 15.1 °C 1013.8 hPa WNW 7.2 km/h 14.5 km/h 74.6% 0 mm 47 W/m2
20:04 19.7 °C 15.1 °C 1013.8 hPa WNW 10.1 km/h 20.9 km/h 75% 0 mm 39 W/m2
20:09 19.6 °C 15 °C 1013.8 hPa WNW 6.3 km/h 19.3 km/h 75% 0 mm 26 W/m2
20:14 19.4 °C 15 °C 1014.1 hPa WNW 8.5 km/h 16.1 km/h 75.4% 0 mm 19 W/m2
20:19 19.3 °C 15 °C 1014.1 hPa West 7.7 km/h 20.9 km/h 76% 0 mm 14 W/m2
20:24 19.2 °C 14.9 °C 1014.1 hPa WNW 9.7 km/h 16.1 km/h 76% 0 mm 12 W/m2
20:29 19.1 °C 14.8 °C 1014.1 hPa West 5.1 km/h 16.1 km/h 76% 0 mm 12 W/m2
20:34 19.1 °C 14.8 °C 1014.1 hPa West 7.7 km/h 14.5 km/h 76% 0 mm 9 W/m2
20:39 18.9 °C 14.8 °C 1014.1 hPa West 4.8 km/h 12.9 km/h 77% 0 mm 5 W/m2
20:44 18.9 °C 14.8 °C 1014.1 hPa West 5.6 km/h 9.7 km/h 77% 0 mm 5 W/m2
20:49 18.9 °C 14.8 °C 1014.1 hPa West 6.4 km/h 12.9 km/h 77% 0 mm 0 W/m2
20:54 18.9 °C 14.8 °C 1014.1 hPa West 3.1 km/h 11.3 km/h 77% 0 mm 0 W/m2
20:59 18.8 °C 14.8 °C 1014.1 hPa West 7.4 km/h 12.9 km/h 77% 0 mm 0 W/m2
21:04 18.8 °C 14.7 °C 1014.4 hPa West 6 km/h 9.7 km/h 77% 0 mm 0 W/m2
21:09 18.8 °C 14.7 °C 1014.1 hPa West 5.8 km/h 8 km/h 77% 0 mm 0 W/m2
21:14 18.7 °C 14.6 °C 1014.4 hPa West 5.1 km/h 9.7 km/h 77% 0 mm 0 W/m2
21:19 18.7 °C 14.6 °C 1014.4 hPa West 4 km/h 9.7 km/h 77% 0 mm 0 W/m2
21:24 18.7 °C 14.6 °C 1014.4 hPa West 5.1 km/h 8 km/h 77% 0 mm 0 W/m2
21:29 18.6 °C 14.5 °C 1014.4 hPa West 4.2 km/h 8 km/h 77% 0 mm 0 W/m2
21:34 18.6 °C 14.4 °C 1014.4 hPa West 5.3 km/h 9.7 km/h 77% 0 mm 0 W/m2
21:39 18.4 °C 14.3 °C 1014.4 hPa West 5.8 km/h 14.5 km/h 77.4% 0 mm 0 W/m2
21:44 18.3 °C 14.3 °C 1014.4 hPa WNW 6.6 km/h 11.3 km/h 77.8% 0 mm 0 W/m2
21:49 18.2 °C 14.2 °C 1014.4 hPa West 4.2 km/h 11.3 km/h 77.4% 0 mm 0 W/m2
21:54 18.1 °C 14.2 °C 1014.4 hPa West 6.1 km/h 11.3 km/h 78% 0 mm 0 W/m2
21:59 17.9 °C 14.1 °C 1014.4 hPa West 4.8 km/h 11.3 km/h 78% 0 mm 0 W/m2
22:04 17.8 °C 13.9 °C 1014.4 hPa WNW 5.3 km/h 9.7 km/h 78% 0 mm 0 W/m2
22:09 17.7 °C 13.8 °C 1014.4 hPa West 1.6 km/h 9.7 km/h 78% 0 mm 0 W/m2
22:14 17.7 °C 13.7 °C 1014.4 hPa West 6 km/h 9.7 km/h 78% 0 mm 0 W/m2
22:19 17.4 °C 13.6 °C 1014.4 hPa West 4.2 km/h 6.4 km/h 78% 0 mm 0 W/m2
22:24 17.4 °C 13.5 °C 1014.4 hPa West 4 km/h 11.3 km/h 78% 0 mm 0 W/m2
22:29 17.3 °C 13.4 °C 1014.4 hPa West 4.2 km/h 8 km/h 78% 0 mm 0 W/m2
22:34 17.3 °C 13.4 °C 1014.4 hPa West 4.5 km/h 8 km/h 78% 0 mm 0 W/m2
22:39 17.2 °C 13.3 °C 1014.4 hPa West 3.5 km/h 8 km/h 78% 0 mm 0 W/m2
22:44 17.2 °C 13.2 °C 1014.4 hPa West 4 km/h 8 km/h 78% 0 mm 0 W/m2
22:49 17.1 °C 13.2 °C 1014.4 hPa West 4.8 km/h 8 km/h 78% 0 mm 0 W/m2
22:54 16.9 °C 13.2 °C 1014.4 hPa West 6.6 km/h 9.7 km/h 78.8% 0 mm 0 W/m2
22:59 16.8 °C 13.1 °C 1014.4 hPa West 4.8 km/h 9.7 km/h 79% 0 mm 0 W/m2
23:04 16.7 °C 13.2 °C 1014.4 hPa West 3.9 km/h 8 km/h 80% 0 mm 0 W/m2
23:09 16.6 °C 13.2 °C 1014.4 hPa West 4 km/h 6.4 km/h 80.4% 0 mm 0 W/m2
23:14 16.4 °C 13.2 °C 1014.4 hPa West 3.9 km/h 6.4 km/h 81% 0 mm 0 W/m2
23:19 16.4 °C 13.2 °C 1014.4 hPa West 3.1 km/h 6.4 km/h 81.2% 0 mm 0 W/m2
23:24 16.3 °C 13.2 °C 1014.4 hPa West 3.2 km/h 6.4 km/h 82% 0 mm 0 W/m2
23:29 16.3 °C 13.2 °C 1014.4 hPa West 3.2 km/h 4.8 km/h 82% 0 mm 0 W/m2
23:34 16.2 °C 13.1 °C 1014.4 hPa West 5 km/h 8 km/h 82% 0 mm 0 W/m2
23:39 16.2 °C 13.3 °C 1014.4 hPa West 5.1 km/h 6.4 km/h 83% 0 mm 0 W/m2
23:44 16.2 °C 13.3 °C 1014.4 hPa West 4.8 km/h 6.4 km/h 83% 0 mm 0 W/m2
23:49 16.2 °C 13.3 °C 1014.4 hPa West 3.9 km/h 6.4 km/h 83% 0 mm 0 W/m2
23:54 16.2 °C 13.3 °C 1014.4 hPa West 4.5 km/h 8 km/h 83% 0 mm 0 W/m2
23:59 16.3 °C 13.4 °C 1014.4 hPa West 3.9 km/h 6.4 km/h 83% 0 mm 0 W/m2
Bath Spa Weather
Compliments of Weather Underground - 2 mb